Time;durP1;ratioP1;P1;durP2;ratioP2;P2;SDS_P1;SDS_P2;PMS_P1;PMS_P2;Temp;Humidity;BMP_temperature;BMP_pressure;BME280_temperature;BME280_humidity;BME280_pressure;Samples;Min_cycle;Max_cycle;Signal;HPM_P1;HPM_P2
2022/07/09 00:01:47;;;;;;;;;;;21.70;51.60;;;;;;5024138;28;19937;-73
2022/07/09 00:04:14;;;;;;;;;;;21.70;51.60;;;;;;5020920;28;19940;-72
2022/07/09 00:06:42;;;;;;;;;;;21.60;51.70;;;;;;5020203;28;19937;-73
2022/07/09 00:09:08;;;;;;;;;;;21.60;51.90;;;;;;5021048;28;19936;-72
2022/07/09 00:11:35;;;;;;;;;;;21.60;52.00;;;;;;5020300;28;19929;-73
2022/07/09 00:14:01;;;;;;;;;;;21.50;51.90;;;;;;5021066;28;20368;-72
2022/07/09 00:16:28;;;;;;;;;;;21.50;52.00;;;;;;5021654;28;20410;-73
2022/07/09 00:18:54;;;;;;;;;;;21.40;52.00;;;;;;5023828;28;20329;-73
2022/07/09 00:21:21;;;;;;;;;;;21.40;52.10;;;;;;5019899;28;20520;-73
2022/07/09 00:23:49;;;;;;;;;;;21.30;52.20;;;;;;5021246;28;19936;-73
2022/07/09 00:26:15;;;;;;;;;;;21.30;52.30;;;;;;5021055;28;19940;-72
2022/07/09 00:28:42;;;;;;;;;;;21.30;52.50;;;;;;5022208;28;19936;-72
2022/07/09 00:31:09;;;;;;;;;;;21.30;52.80;;;;;;5019845;28;19972;-72
2022/07/09 00:33:35;;;;;;;;;;;21.20;52.70;;;;;;5022706;28;19929;-72
2022/07/09 00:36:02;;;;;;;;;;;21.20;52.80;;;;;;5022306;28;19929;-72
2022/07/09 00:38:28;;;;;;;;;;;21.10;52.80;;;;;;5022138;28;20259;-73
2022/07/09 00:40:56;;;;;;;;;;;21.10;52.70;;;;;;5022966;28;20263;-73
2022/07/09 00:43:23;;;;;;;;;;;21.10;52.60;;;;;;5019844;28;20011;-73
2022/07/09 00:45:50;;;;;;;;;;;21.00;52.70;;;;;;5021134;28;19972;-73
2022/07/09 00:48:16;;;;;;;;;;;21.00;52.80;;;;;;5023135;28;19940;-73
2022/07/09 00:50:43;;;;;;;;;;;21.00;52.80;;;;;;5023486;28;19929;-72
2022/07/09 00:53:11;;;;;;;;;;;21.00;52.90;;;;;;5024047;28;20407;-73
2022/07/09 00:55:37;;;;;;;;;;;20.90;52.70;;;;;;5023999;28;19936;-72
2022/07/09 00:58:05;;;;;;;;;;;20.90;52.90;;;;;;5026069;28;19937;-73
2022/07/09 01:00:33;;;;;;;;;;;20.80;53.00;;;;;;5024988;28;19933;-72
2022/07/09 01:03:00;;;;;;;;;;;20.80;53.00;;;;;;5028730;28;19929;-73
2022/07/09 01:05:26;;;;;;;;;;;20.70;53.10;;;;;;5023484;28;19936;-72
2022/07/09 01:07:53;;;;;;;;;;;20.70;53.00;;;;;;5023769;28;19936;-72
2022/07/09 01:10:20;;;;;;;;;;;20.60;53.00;;;;;;5024996;28;19930;-73
2022/07/09 01:12:47;;;;;;;;;;;20.60;53.10;;;;;;5026236;28;19933;-73
2022/07/09 01:15:14;;;;;;;;;;;20.60;53.20;;;;;;5025383;28;19933;-72
2022/07/09 01:17:41;;;;;;;;;;;20.60;53.20;;;;;;5026480;28;19932;-72
2022/07/09 01:20:08;;;;;;;;;;;20.50;53.30;;;;;;5023962;28;19951;-72
2022/07/09 01:22:36;;;;;;;;;;;20.50;53.30;;;;;;5023398;28;19940;-72
2022/07/09 01:25:07;;;;;;;;;;;20.50;53.50;;;;;;5024644;28;19929;-72
2022/07/09 01:27:34;;;;;;;;;;;20.40;53.30;;;;;;5023885;28;19986;-73
2022/07/09 01:30:00;;;;;;;;;;;20.40;53.40;;;;;;5026079;28;20615;-72
2022/07/09 01:32:27;;;;;;;;;;;20.40;53.50;;;;;;5024432;28;20533;-72
2022/07/09 01:34:53;;;;;;;;;;;20.30;53.40;;;;;;5025471;28;20776;-73
2022/07/09 01:37:20;;;;;;;;;;;20.30;53.50;;;;;;5024514;28;19933;-72
2022/07/09 01:39:51;;;;;;;;;;;20.30;53.60;;;;;;5025002;28;19929;-73
2022/07/09 01:42:18;;;;;;;;;;;20.30;53.80;;;;;;5025199;28;19937;-73
2022/07/09 01:44:44;;;;;;;;;;;20.10;53.60;;;;;;5023059;28;19929;-73
2022/07/09 01:47:11;;;;;;;;;;;20.10;53.60;;;;;;5022456;28;19936;-72
2022/07/09 01:49:38;;;;;;;;;;;20.10;53.70;;;;;;5026213;28;19929;-72
2022/07/09 01:52:05;;;;;;;;;;;20.10;53.80;;;;;;5022813;28;19929;-72
2022/07/09 01:54:32;;;;;;;;;;;20.00;53.70;;;;;;5024864;28;19940;-73
2022/07/09 01:56:59;;;;;;;;;;;20.00;53.90;;;;;;5024820;28;19929;-73
2022/07/09 01:59:26;;;;;;;;;;;20.00;54.00;;;;;;5022699;28;19929;-73
2022/07/09 02:01:53;;;;;;;;;;;20.00;54.10;;;;;;5023495;28;19929;-72
2022/07/09 02:04:19;;;;;;;;;;;20.00;54.20;;;;;;5021848;28;19933;-72
2022/07/09 02:06:46;;;;;;;;;;;19.90;54.20;;;;;;5022114;28;19929;-73
2022/07/09 02:09:12;;;;;;;;;;;19.90;54.30;;;;;;5022511;28;19936;-72
2022/07/09 02:11:39;;;;;;;;;;;19.80;54.30;;;;;;5023279;28;20022;-72
2022/07/09 02:14:07;;;;;;;;;;;19.80;54.40;;;;;;5023837;28;19929;-72
2022/07/09 02:16:33;;;;;;;;;;;19.80;54.40;;;;;;5022860;28;19983;-72
2022/07/09 02:19:00;;;;;;;;;;;19.70;54.50;;;;;;5026204;28;20435;-72
2022/07/09 02:21:26;;;;;;;;;;;19.70;54.50;;;;;;5021971;28;19933;-72
2022/07/09 02:23:58;;;;;;;;;;;19.70;54.60;;;;;;5025366;28;19935;-73
2022/07/09 02:26:25;;;;;;;;;;;19.60;54.70;;;;;;5023087;28;20060;-72
2022/07/09 02:28:52;;;;;;;;;;;19.60;54.80;;;;;;5025292;28;20044;-73
2022/07/09 02:31:20;;;;;;;;;;;19.60;54.80;;;;;;5024130;28;20688;-73
2022/07/09 02:33:46;;;;;;;;;;;19.50;54.80;;;;;;5022832;28;20479;-72
2022/07/09 02:36:13;;;;;;;;;;;19.50;54.90;;;;;;5022247;28;19936;-72
2022/07/09 02:38:40;;;;;;;;;;;19.50;54.90;;;;;;5021291;28;19951;-73
2022/07/09 02:41:06;;;;;;;;;;;19.40;55.00;;;;;;5024144;28;19936;-73
2022/07/09 02:43:33;;;;;;;;;;;19.40;55.10;;;;;;5020501;28;19968;-72
2022/07/09 02:46:00;;;;;;;;;;;19.40;55.20;;;;;;5024276;28;19940;-73
2022/07/09 02:48:28;;;;;;;;;;;19.30;55.20;;;;;;5021129;28;20056;-72
2022/07/09 02:50:55;;;;;;;;;;;19.30;55.20;;;;;;5023387;28;19929;-73
2022/07/09 02:53:21;;;;;;;;;;;19.30;55.30;;;;;;5024918;28;19933;-73
2022/07/09 02:55:48;;;;;;;;;;;19.30;56.00;;;;;;5023707;28;19929;-72
2022/07/09 02:58:14;;;;;;;;;;;19.20;55.40;;;;;;5022407;28;20456;-72
2022/07/09 03:00:41;;;;;;;;;;;19.20;55.50;;;;;;5021515;28;19933;-72
2022/07/09 03:03:08;;;;;;;;;;;19.20;55.60;;;;;;5023076;28;19936;-72
2022/07/09 03:05:36;;;;;;;;;;;19.20;55.60;;;;;;5020683;28;19936;-72
2022/07/09 03:08:03;;;;;;;;;;;19.10;55.60;;;;;;5023791;28;19947;-72
2022/07/09 03:10:29;;;;;;;;;;;19.10;55.60;;;;;;5024558;28;19940;-72
2022/07/09 03:12:56;;;;;;;;;;;19.00;55.70;;;;;;5021045;28;20016;-72
2022/07/09 03:15:23;;;;;;;;;;;19.00;55.80;;;;;;5022768;28;20423;-73
2022/07/09 03:17:49;;;;;;;;;;;19.00;55.90;;;;;;5023482;28;20403;-73
2022/07/09 03:20:16;;;;;;;;;;;19.00;56.00;;;;;;5021105;28;19933;-72
2022/07/09 03:22:44;;;;;;;;;;;18.90;56.00;;;;;;5020728;28;19939;-73
2022/07/09 03:25:10;;;;;;;;;;;18.90;56.00;;;;;;5022987;28;19929;-72
2022/07/09 03:27:37;;;;;;;;;;;18.90;56.20;;;;;;5020835;28;19933;-73
2022/07/09 03:30:04;;;;;;;;;;;18.80;56.10;;;;;;5018988;28;19929;-72
2022/07/09 03:32:30;;;;;;;;;;;18.80;56.20;;;;;;5021645;28;19944;-72
2022/07/09 03:34:57;;;;;;;;;;;18.80;56.30;;;;;;5023054;28;19937;-72
2022/07/09 03:37:24;;;;;;;;;;;18.80;56.40;;;;;;5020470;28;19933;-72
2022/07/09 03:39:51;;;;;;;;;;;18.70;56.50;;;;;;5021731;28;19956;-72
2022/07/09 03:42:18;;;;;;;;;;;18.70;56.50;;;;;;5021881;28;19928;-72
2022/07/09 03:44:44;;;;;;;;;;;18.60;56.40;;;;;;5020161;28;20352;-72
2022/07/09 03:47:11;;;;;;;;;;;18.70;56.60;;;;;;5020110;28;20506;-72
2022/07/09 03:49:38;;;;;;;;;;;18.70;56.60;;;;;;5022020;28;19933;-72
2022/07/09 03:52:04;;;;;;;;;;;18.60;56.60;;;;;;5020945;28;19936;-72
2022/07/09 03:54:31;;;;;;;;;;;18.60;56.70;;;;;;5022428;28;19933;-72
2022/07/09 03:56:59;;;;;;;;;;;18.60;56.70;;;;;;5023335;28;19933;-72
2022/07/09 03:59:25;;;;;;;;;;;18.50;56.70;;;;;;5020791;28;19933;-73
2022/07/09 04:01:52;;;;;;;;;;;18.50;56.80;;;;;;5016971;28;19929;-73
2022/07/09 04:04:18;;;;;;;;;;;18.50;56.80;;;;;;5018994;28;19929;-72
2022/07/09 04:06:45;;;;;;;;;;;18.40;56.90;;;;;;5018688;28;19933;-72
2022/07/09 04:09:11;;;;;;;;;;;18.40;57.00;;;;;;5023118;28;19931;-72
2022/07/09 04:11:38;;;;;;;;;;;18.40;57.00;;;;;;5021630;28;20423;-72
2022/07/09 04:14:06;;;;;;;;;;;18.30;57.10;;;;;;5020870;28;20316;-72
2022/07/09 04:16:32;;;;;;;;;;;18.30;57.20;;;;;;5020876;28;21740;-73
2022/07/09 04:18:59;;;;;;;;;;;18.30;57.20;;;;;;5021420;28;19929;-73
2022/07/09 04:21:25;;;;;;;;;;;18.30;57.20;;;;;;5020281;28;19940;-72
2022/07/09 04:23:52;;;;;;;;;;;18.30;57.20;;;;;;5021167;28;19937;-72
2022/07/09 04:26:19;;;;;;;;;;;18.20;57.20;;;;;;5019857;28;19935;-72
2022/07/09 04:28:46;;;;;;;;;;;18.20;57.30;;;;;;5021261;28;20022;-73
2022/07/09 04:31:15;;;;;;;;;;;18.20;57.40;;;;;;5021065;28;19952;-72
2022/07/09 04:33:42;;;;;;;;;;;18.20;57.60;;;;;;5023338;28;19936;-72
2022/07/09 04:36:09;;;;;;;;;;;18.10;57.60;;;;;;5025257;28;19936;-73
2022/07/09 04:38:35;;;;;;;;;;;18.10;57.60;;;;;;5026036;28;19964;-73
2022/07/09 04:41:02;;;;;;;;;;;18.10;57.80;;;;;;5025063;28;19941;-73
2022/07/09 04:43:29;;;;;;;;;;;18.10;57.70;;;;;;5024292;28;19933;-73
2022/07/09 04:45:56;;;;;;;;;;;18.10;57.90;;;;;;5025551;28;20737;-72
2022/07/09 04:48:24;;;;;;;;;;;18.10;57.90;;;;;;5023570;28;19936;-73
2022/07/09 04:50:50;;;;;;;;;;;18.00;57.90;;;;;;5023986;28;20004;-73
2022/07/09 04:53:17;;;;;;;;;;;18.00;58.00;;;;;;5027832;28;19936;-73
2022/07/09 04:55:43;;;;;;;;;;;18.00;58.00;;;;;;5025921;28;19936;-73
2022/07/09 04:58:10;;;;;;;;;;;17.90;58.10;;;;;;5024153;28;19929;-73
2022/07/09 05:00:36;;;;;;;;;;;17.90;58.10;;;;;;5021460;28;19937;-73
2022/07/09 05:03:03;;;;;;;;;;;17.90;58.20;;;;;;5025875;28;19929;-72
2022/07/09 05:05:31;;;;;;;;;;;17.90;58.30;;;;;;5024074;28;19929;-73
2022/07/09 05:07:58;;;;;;;;;;;17.90;58.30;;;;;;5023451;28;20034;-73
2022/07/09 05:10:25;;;;;;;;;;;17.90;58.40;;;;;;5027018;28;19944;-72
2022/07/09 05:12:51;;;;;;;;;;;17.90;58.50;;;;;;5027884;28;20506;-73
2022/07/09 05:15:18;;;;;;;;;;;17.90;58.60;;;;;;5025475;28;20469;-72
2022/07/09 05:17:44;;;;;;;;;;;17.90;58.60;;;;;;5024463;28;20320;-73
2022/07/09 05:20:11;;;;;;;;;;;17.90;58.70;;;;;;5021882;28;19929;-73
2022/07/09 05:22:39;;;;;;;;;;;17.90;58.70;;;;;;5023640;28;20408;-73
2022/07/09 05:25:06;;;;;;;;;;;17.80;58.80;;;;;;5023796;28;19937;-73
2022/07/09 05:27:33;;;;;;;;;;;17.80;58.90;;;;;;5024010;28;19940;-73
2022/07/09 05:29:59;;;;;;;;;;;17.90;59.00;;;;;;5024018;28;20063;-73
2022/07/09 05:32:26;;;;;;;;;;;17.80;59.00;;;;;;5022919;28;20188;-74
2022/07/09 05:34:52;;;;;;;;;;;17.80;59.10;;;;;;5022753;28;19929;-72
2022/07/09 05:37:19;;;;;;;;;;;17.90;59.20;;;;;;5027287;28;19929;-73
2022/07/09 05:39:47;;;;;;;;;;;17.80;59.20;;;;;;5030727;28;20491;-72
2022/07/09 05:42:13;;;;;;;;;;;17.80;59.20;;;;;;5021919;28;20273;-72
2022/07/09 05:44:40;;;;;;;;;;;17.80;59.20;;;;;;5015700;28;20502;-72
2022/07/09 05:47:06;;;;;;;;;;;17.90;59.30;;;;;;5021322;28;20483;-72
2022/07/09 05:49:33;;;;;;;;;;;17.90;59.30;;;;;;5019559;28;19929;-72
2022/07/09 05:51:59;;;;;;;;;;;17.90;59.30;;;;;;5015555;28;19940;-73
2022/07/09 05:54:26;;;;;;;;;;;17.90;59.30;;;;;;5022289;28;19937;-73
2022/07/09 05:56:54;;;;;;;;;;;17.90;59.20;;;;;;5025770;28;19929;-72
2022/07/09 05:59:20;;;;;;;;;;;17.90;59.30;;;;;;5022922;28;19925;-73
2022/07/09 06:01:47;;;;;;;;;;;17.90;59.20;;;;;;5023562;28;19936;-73
2022/07/09 06:04:14;;;;;;;;;;;17.90;59.20;;;;;;5025300;28;19933;-73
2022/07/09 06:06:40;;;;;;;;;;;17.90;59.20;;;;;;5023505;28;19942;-73
2022/07/09 06:09:07;;;;;;;;;;;18.00;59.30;;;;;;5022628;28;19933;-72
2022/07/09 06:11:34;;;;;;;;;;;18.00;59.30;;;;;;5022928;28;19936;-72
2022/07/09 06:14:02;;;;;;;;;;;18.00;59.30;;;;;;5023863;28;19971;-72
2022/07/09 06:16:28;;;;;;;;;;;18.00;59.40;;;;;;5019702;28;19940;-73
2022/07/09 06:18:55;;;;;;;;;;;18.00;59.30;;;;;;5023828;28;19929;-72
2022/07/09 06:21:22;;;;;;;;;;;18.00;59.30;;;;;;5020600;28;19936;-72
2022/07/09 06:23:48;;;;;;;;;;;18.00;59.40;;;;;;5021559;28;19929;-72
2022/07/09 06:26:15;;;;;;;;;;;18.10;59.40;;;;;;5021738;28;19929;-72
2022/07/09 06:28:41;;;;;;;;;;;18.00;59.30;;;;;;5021270;28;19940;-72
2022/07/09 06:31:09;;;;;;;;;;;18.10;59.20;;;;;;5023422;28;19929;-74
2022/07/09 06:33:36;;;;;;;;;;;18.10;59.20;;;;;;5023655;28;19940;-73
2022/07/09 06:36:02;;;;;;;;;;;18.10;59.20;;;;;;5022306;28;20324;-73
2022/07/09 06:38:30;;;;;;;;;;;18.20;59.20;;;;;;5026125;28;19929;-73
2022/07/09 06:40:56;;;;;;;;;;;18.20;59.10;;;;;;5023597;28;20007;-73
2022/07/09 06:43:23;;;;;;;;;;;18.20;59.10;;;;;;5021943;28;20002;-72
2022/07/09 06:45:49;;;;;;;;;;;18.20;59.10;;;;;;5024717;28;19933;-72
2022/07/09 06:48:17;;;;;;;;;;;18.20;58.90;;;;;;5024271;28;19929;-72
2022/07/09 06:50:44;;;;;;;;;;;18.30;58.90;;;;;;5020161;28;19953;-73
2022/07/09 06:53:10;;;;;;;;;;;18.30;59.00;;;;;;5025006;28;19933;-73
2022/07/09 06:55:37;;;;;;;;;;;18.30;59.10;;;;;;5022404;28;19936;-72
2022/07/09 06:58:03;;;;;;;;;;;18.30;58.90;;;;;;5025120;28;20269;-72
2022/07/09 07:00:30;;;;;;;;;;;18.30;58.80;;;;;;5018323;28;19929;-73
2022/07/09 07:02:59;;;;;;;;;;;18.40;58.80;;;;;;5021993;28;19940;-72
2022/07/09 07:05:27;;;;;;;;;;;18.40;58.80;;;;;;5019676;28;20451;-72
2022/07/09 07:07:53;;;;;;;;;;;18.40;58.90;;;;;;5022305;28;19940;-73
2022/07/09 07:10:20;;;;;;;;;;;18.50;59.20;;;;;;5014987;28;19929;-72
2022/07/09 07:12:46;;;;;;;;;;;18.50;59.10;;;;;;5020918;28;19929;-73
2022/07/09 07:15:13;;;;;;;;;;;18.50;59.20;;;;;;5022474;28;20306;-73
2022/07/09 07:17:40;;;;;;;;;;;18.50;59.10;;;;;;5021586;28;20597;-73
2022/07/09 07:20:07;;;;;;;;;;;18.60;59.10;;;;;;5017378;28;19937;-73
2022/07/09 07:22:35;;;;;;;;;;;18.60;59.20;;;;;;5018485;28;19936;-73
2022/07/09 07:25:02;;;;;;;;;;;18.60;59.10;;;;;;5019560;28;19933;-72
2022/07/09 07:27:28;;;;;;;;;;;18.60;59.30;;;;;;5018966;28;20348;-73
2022/07/09 07:29:55;;;;;;;;;;;18.60;59.30;;;;;;5020754;28;19936;-73
2022/07/09 07:32:21;;;;;;;;;;;18.70;59.30;;;;;;5020270;28;19929;-73
2022/07/09 07:34:48;;;;;;;;;;;18.80;59.50;;;;;;5023945;28;19933;-73
2022/07/09 07:37:14;;;;;;;;;;;18.70;59.40;;;;;;5021849;28;19940;-73
2022/07/09 07:39:42;;;;;;;;;;;18.80;59.50;;;;;;5023389;28;19932;-73
2022/07/09 07:42:09;;;;;;;;;;;18.90;59.90;;;;;;5022646;28;19940;-73
2022/07/09 07:44:36;;;;;;;;;;;18.90;59.60;;;;;;5018601;28;20389;-74
2022/07/09 07:47:02;;;;;;;;;;;18.90;59.50;;;;;;5020899;28;19944;-73
2022/07/09 07:49:29;;;;;;;;;;;18.90;59.60;;;;;;5022830;28;19925;-74
2022/07/09 07:51:55;;;;;;;;;;;18.90;59.50;;;;;;5019340;28;19964;-74
2022/07/09 07:54:22;;;;;;;;;;;19.00;59.70;;;;;;5023807;28;19940;-74
2022/07/09 07:56:50;;;;;;;;;;;19.10;59.70;;;;;;5020831;28;19933;-74
2022/07/09 07:59:17;;;;;;;;;;;19.00;59.50;;;;;;5017535;28;20047;-72
2022/07/09 08:01:43;;;;;;;;;;;19.10;59.50;;;;;;5016188;28;20442;-72
2022/07/09 08:04:10;;;;;;;;;;;19.20;61.20;;;;;;5013223;28;20385;-73
2022/07/09 08:06:36;;;;;;;;;;;19.20;60.60;;;;;;5013271;28;20438;-72
2022/07/09 08:09:03;;;;;;;;;;;19.30;60.40;;;;;;5015065;28;19948;-72
2022/07/09 08:11:30;;;;;;;;;;;19.30;60.40;;;;;;5012928;28;19925;-73
2022/07/09 08:13:57;;;;;;;;;;;19.30;60.20;;;;;;5014549;28;20381;-73
2022/07/09 08:16:24;;;;;;;;;;;19.40;60.20;;;;;;5015571;28;20426;-72
2022/07/09 08:18:51;;;;;;;;;;;19.40;60.10;;;;;;5018759;28;19929;-73
2022/07/09 08:21:17;;;;;;;;;;;19.40;60.40;;;;;;5014859;28;20015;-73
2022/07/09 08:23:53;;;;;;;;;;;19.40;60.30;;;;;;5017459;28;19933;-72
2022/07/09 08:26:21;;;;;;;;;;;19.50;60.30;;;;;;5017720;28;19933;-73
2022/07/09 08:28:47;;;;;;;;;;;19.50;59.90;;;;;;5019343;28;19930;-72
2022/07/09 08:31:15;;;;;;;;;;;19.50;59.90;;;;;;5016235;28;19933;-73
2022/07/09 08:33:42;;;;;;;;;;;19.60;59.90;;;;;;5018176;28;19933;-72
2022/07/09 08:36:08;;;;;;;;;;;19.60;59.80;;;;;;5013193;28;19940;-73
2022/07/09 08:38:35;;;;;;;;;;;19.60;59.70;;;;;;5018324;28;19929;-72
2022/07/09 08:41:04;;;;;;;;;;;19.70;59.50;;;;;;5018034;28;19933;-72
2022/07/09 08:43:33;;;;;;;;;;;19.70;59.50;;;;;;5014956;28;19929;-73
2022/07/09 08:45:59;;;;;;;;;;;19.80;59.50;;;;;;5014692;28;19959;-72
2022/07/09 08:48:27;;;;;;;;;;;19.80;59.60;;;;;;5013065;28;19930;-72
2022/07/09 08:50:54;;;;;;;;;;;19.90;59.50;;;;;;5014416;28;19929;-73
2022/07/09 08:53:21;;;;;;;;;;;19.90;59.40;;;;;;5015055;28;19936;-73
2022/07/09 08:55:48;;;;;;;;;;;19.90;59.30;;;;;;5019467;28;19936;-73
2022/07/09 08:58:15;;;;;;;;;;;20.00;59.20;;;;;;5014890;28;19933;-72
2022/07/09 09:00:42;;;;;;;;;;;20.00;59.10;;;;;;5015744;28;19947;-73
2022/07/09 09:03:09;;;;;;;;;;;20.10;59.00;;;;;;5013859;28;19933;-72
2022/07/09 09:05:36;;;;;;;;;;;20.10;59.00;;;;;;5014409;28;19933;-73
2022/07/09 09:08:17;;;;;;;;;;;20.20;59.00;;;;;;5021643;28;19929;-72
2022/07/09 09:10:45;;;;;;;;;;;20.20;58.80;;;;;;5023491;28;19929;-72
2022/07/09 09:13:14;;;;;;;;;;;20.30;58.80;;;;;;5021362;28;19952;-73
2022/07/09 09:15:41;;;;;;;;;;;20.30;58.60;;;;;;5019998;28;19932;-73
2022/07/09 09:18:08;;;;;;;;;;;20.40;58.60;;;;;;5026006;28;19929;-72
2022/07/09 09:20:36;;;;;;;;;;;20.40;58.40;;;;;;5026089;28;19929;-74
2022/07/09 09:23:09;;;;;;;;;;;20.60;58.50;;;;;;5022840;28;20404;-73
2022/07/09 09:25:36;;;;;;;;;;;20.80;57.80;;;;;;5025181;28;19987;-74
2022/07/09 09:28:03;;;;;;;;;;;21.00;57.30;;;;;;5021749;28;19963;-74
2022/07/09 09:30:30;;;;;;;;;;;21.20;56.80;;;;;;5016848;28;20013;-73
2022/07/09 09:32:58;;;;;;;;;;;21.40;56.30;;;;;;5023768;28;19952;-73
2022/07/09 09:35:25;;;;;;;;;;;21.60;55.80;;;;;;5026444;28;20091;-73
2022/07/09 09:37:53;;;;;;;;;;;21.80;55.50;;;;;;5022876;28;19940;-74
2022/07/09 09:40:20;;;;;;;;;;;21.90;55.10;;;;;;5027012;28;19941;-73
2022/07/09 09:42:46;;;;;;;;;;;22.00;54.80;;;;;;5022930;28;19929;-74
2022/07/09 09:45:14;;;;;;;;;;;22.10;54.50;;;;;;5021573;28;19933;-74
2022/07/09 09:47:40;;;;;;;;;;;22.20;54.20;;;;;;5022659;28;20379;-74
2022/07/09 09:50:13;;;;;;;;;;;22.30;53.70;;;;;;5023994;28;19933;-74
2022/07/09 09:52:40;;;;;;;;;;;22.40;53.30;;;;;;5021499;28;19939;-74
2022/07/09 09:55:09;;;;;;;;;;;22.50;53.20;;;;;;5027308;28;19933;-73
2022/07/09 09:57:37;;;;;;;;;;;22.60;53.00;;;;;;5021406;28;20378;-74
2022/07/09 10:00:04;;;;;;;;;;;22.70;52.80;;;;;;5022549;28;19940;-74
2022/07/09 10:02:31;;;;;;;;;;;22.70;52.60;;;;;;5023194;28;19929;-74
2022/07/09 10:04:58;;;;;;;;;;;22.90;53.10;;;;;;5022469;28;19936;-74
2022/07/09 10:07:24;;;;;;;;;;;22.90;52.40;;;;;;5022870;28;19929;-74
2022/07/09 10:09:54;;;;;;;;;;;23.00;52.40;;;;;;5023701;28;19929;-74
2022/07/09 10:12:28;;;;;;;;;;;23.00;52.40;;;;;;5024027;28;20015;-73
2022/07/09 10:14:55;;;;;;;;;;;23.10;52.30;;;;;;5025652;28;19929;-74
2022/07/09 10:17:21;;;;;;;;;;;23.10;52.10;;;;;;5025124;28;19929;-74
2022/07/09 10:19:52;;;;;;;;;;;23.20;52.10;;;;;;5025041;28;19933;-74
2022/07/09 10:22:18;;;;;;;;;;;23.30;52.00;;;;;;5021977;28;20036;-73
2022/07/09 10:24:45;;;;;;;;;;;23.40;51.80;;;;;;5025741;28;19951;-74
2022/07/09 10:27:13;;;;;;;;;;;23.40;51.70;;;;;;5025177;28;19929;-74
2022/07/09 10:29:52;;;;;;;;;;;23.40;51.60;;;;;;5024680;28;20012;-73
2022/07/09 10:32:22;;;;;;;;;;;23.50;51.40;;;;;;5025803;28;19926;-74
2022/07/09 10:34:55;;;;;;;;;;;23.50;51.10;;;;;;5020278;28;20462;-75
2022/07/09 10:37:31;;;;;;;;;;;23.60;51.20;;;;;;5024317;28;19935;-80
2022/07/09 10:39:57;;;;;;;;;;;23.70;51.10;;;;;;5022183;28;19929;-74
2022/07/09 10:42:24;;;;;;;;;;;23.70;51.00;;;;;;5024452;28;19940;-74
2022/07/09 10:44:53;;;;;;;;;;;23.70;50.90;;;;;;5019386;28;19964;-76
2022/07/09 10:47:20;;;;;;;;;;;23.80;50.70;;;;;;5024169;28;20298;-76
2022/07/09 10:49:46;;;;;;;;;;;23.80;50.60;;;;;;5023856;28;19935;-75
2022/07/09 10:52:13;;;;;;;;;;;23.90;50.50;;;;;;5022886;28;19933;-77
2022/07/09 10:54:48;;;;;;;;;;;24.00;50.30;;;;;;5020978;28;22332;-75
2022/07/09 10:57:14;;;;;;;;;;;24.00;50.10;;;;;;5015224;28;19929;-74
2022/07/09 10:59:45;;;;;;;;;;;24.10;50.00;;;;;;5017448;28;19937;-72
2022/07/09 11:02:19;;;;;;;;;;;24.10;50.00;;;;;;5017856;28;19936;-72
2022/07/09 11:04:48;;;;;;;;;;;24.20;50.00;;;;;;5018917;28;20012;-72
2022/07/09 11:07:19;;;;;;;;;;;24.20;49.90;;;;;;5014865;28;19929;-72
2022/07/09 11:09:46;;;;;;;;;;;24.30;49.90;;;;;;5017820;28;19929;-72
2022/07/09 11:12:15;;;;;;;;;;;24.40;49.80;;;;;;5018051;28;20036;-72
2022/07/09 11:14:43;;;;;;;;;;;24.50;49.80;;;;;;5018722;28;20625;-72
2022/07/09 11:17:14;;;;;;;;;;;24.50;49.70;;;;;;5018653;28;19937;-73
2022/07/09 11:19:42;;;;;;;;;;;24.60;49.50;;;;;;5018413;28;19940;-72
2022/07/09 11:22:09;;;;;;;;;;;24.60;49.40;;;;;;5020782;28;19933;-72
2022/07/09 11:24:35;;;;;;;;;;;24.70;49.50;;;;;;5023426;28;19936;-72
2022/07/09 11:27:03;;;;;;;;;;;24.70;49.40;;;;;;5023511;28;20341;-71
2022/07/09 11:29:30;;;;;;;;;;;24.70;49.30;;;;;;5025058;28;20486;-72
2022/07/09 11:31:57;;;;;;;;;;;24.80;49.10;;;;;;5022674;28;20028;-72
2022/07/09 11:34:23;;;;;;;;;;;24.90;49.00;;;;;;5021332;28;19960;-72
2022/07/09 11:36:53;;;;;;;;;;;24.90;49.10;;;;;;5017589;28;19940;-72
2022/07/09 11:39:23;;;;;;;;;;;25.00;49.20;;;;;;5018966;28;19933;-72
2022/07/09 11:41:50;;;;;;;;;;;25.00;49.20;;;;;;5019737;28;19972;-72
2022/07/09 11:44:21;;;;;;;;;;;25.10;49.00;;;;;;5023336;28;19948;-72
2022/07/09 11:46:59;;;;;;;;;;;25.20;48.90;;;;;;5019847;28;20028;-72
2022/07/09 11:49:32;;;;;;;;;;;25.20;48.40;;;;;;5020615;28;19929;-73
2022/07/09 11:52:00;;;;;;;;;;;25.30;48.50;;;;;;5012552;28;19936;-72
2022/07/09 11:54:27;;;;;;;;;;;25.40;48.70;;;;;;5022680;28;19933;-73
2022/07/09 11:56:53;;;;;;;;;;;25.40;48.70;;;;;;5016687;28;19929;-72
2022/07/09 11:59:26;;;;;;;;;;;25.50;48.80;;;;;;5011917;28;19968;-72
2022/07/09 12:01:52;;;;;;;;;;;25.60;48.90;;;;;;5018055;28;19959;-72
2022/07/09 12:04:20;;;;;;;;;;;25.60;48.30;;;;;;5020494;28;19940;-72
2022/07/09 12:06:49;;;;;;;;;;;25.70;48.60;;;;;;5016338;28;20106;-72
2022/07/09 12:09:27;;;;;;;;;;;25.70;48.20;;;;;;5018047;28;19983;-72
2022/07/09 12:11:54;;;;;;;;;;;25.80;48.20;;;;;;5023992;28;19933;-72
2022/07/09 12:14:20;;;;;;;;;;;25.90;48.30;;;;;;5022030;28;19937;-72
2022/07/09 12:16:47;;;;;;;;;;;25.90;47.70;;;;;;5023054;28;19933;-72
2022/07/09 12:19:13;;;;;;;;;;;25.90;47.40;;;;;;5021784;28;19933;-72
2022/07/09 12:21:40;;;;;;;;;;;26.00;47.30;;;;;;5017898;28;19936;-72
2022/07/09 12:24:06;;;;;;;;;;;26.10;47.20;;;;;;5022557;28;19940;-72
2022/07/09 12:26:34;;;;;;;;;;;26.10;47.10;;;;;;5023115;28;19928;-72
2022/07/09 12:29:01;;;;;;;;;;;26.20;47.00;;;;;;5023428;28;20021;-72
2022/07/09 12:31:27;;;;;;;;;;;26.20;47.00;;;;;;5021902;28;19936;-72
2022/07/09 12:33:54;;;;;;;;;;;26.30;47.00;;;;;;5022447;28;20312;-72
2022/07/09 12:36:21;;;;;;;;;;;26.30;47.00;;;;;;5021250;28;19936;-72
2022/07/09 12:38:48;;;;;;;;;;;26.40;47.40;;;;;;5022706;28;20435;-71
2022/07/09 12:41:14;;;;;;;;;;;26.40;47.50;;;;;;5021958;28;19929;-72
2022/07/09 12:43:42;;;;;;;;;;;26.40;47.70;;;;;;5019582;28;20416;-72
2022/07/09 12:46:09;;;;;;;;;;;26.40;47.10;;;;;;5012709;28;19936;-72
2022/07/09 12:48:35;;;;;;;;;;;26.50;47.90;;;;;;5018595;28;19933;-72
2022/07/09 12:51:02;;;;;;;;;;;26.50;47.20;;;;;;5017436;28;19940;-72
2022/07/09 12:53:28;;;;;;;;;;;26.50;47.20;;;;;;5021679;28;19936;-72
2022/07/09 12:55:55;;;;;;;;;;;26.50;47.60;;;;;;5018391;28;19933;-71
2022/07/09 12:58:21;;;;;;;;;;;26.60;47.00;;;;;;5023164;28;19964;-72
2022/07/09 13:00:49;;;;;;;;;;;26.60;47.50;;;;;;5020595;28;19936;-74
2022/07/09 13:03:16;;;;;;;;;;;26.60;47.00;;;;;;5020612;28;19929;-77
2022/07/09 13:05:42;;;;;;;;;;;26.60;47.10;;;;;;5017451;28;19933;-72
2022/07/09 13:08:09;;;;;;;;;;;26.70;47.70;;;;;;5016545;28;19937;-77
2022/07/09 13:10:35;;;;;;;;;;;26.70;47.40;;;;;;5026777;28;19929;-75
2022/07/09 13:13:02;;;;;;;;;;;26.70;47.80;;;;;;5020149;28;19934;-76
2022/07/09 13:15:28;;;;;;;;;;;26.80;47.80;;;;;;5021030;28;19929;-76
2022/07/09 13:17:56;;;;;;;;;;;26.80;47.60;;;;;;5022274;28;19945;-76
2022/07/09 13:20:23;;;;;;;;;;;26.80;47.60;;;;;;5019294;28;19937;-77
2022/07/09 13:22:49;;;;;;;;;;;26.90;47.60;;;;;;5017955;28;19940;-76
2022/07/09 13:25:16;;;;;;;;;;;26.90;47.70;;;;;;5020090;28;19932;-76
2022/07/09 13:27:42;;;;;;;;;;;26.90;47.30;;;;;;5019439;28;19940;-76
2022/07/09 13:30:10;;;;;;;;;;;26.90;47.10;;;;;;5022606;28;19940;-77
2022/07/09 13:32:37;;;;;;;;;;;27.00;47.40;;;;;;5018997;28;19979;-75
2022/07/09 13:35:05;;;;;;;;;;;27.00;47.50;;;;;;5020574;28;19929;-74
2022/07/09 13:37:33;;;;;;;;;;;27.00;47.40;;;;;;5024828;28;19933;-75
2022/07/09 13:39:59;;;;;;;;;;;27.10;47.30;;;;;;5022160;28;19991;-73
2022/07/09 13:42:26;;;;;;;;;;;27.10;47.20;;;;;;5026008;28;19929;-74
2022/07/09 13:44:52;;;;;;;;;;;27.10;47.30;;;;;;5022461;28;19932;-73
2022/07/09 13:47:19;;;;;;;;;;;27.10;47.20;;;;;;5020329;28;19951;-71
2022/07/09 13:49:45;;;;;;;;;;;27.10;47.20;;;;;;5023138;28;20416;-71
2022/07/09 13:52:13;;;;;;;;;;;27.20;47.40;;;;;;5022815;28;19940;-71
2022/07/09 13:54:40;;;;;;;;;;;27.20;47.10;;;;;;5019814;28;19929;-71
2022/07/09 13:57:06;;;;;;;;;;;27.20;46.80;;;;;;5013157;28;19936;-74
2022/07/09 13:59:33;;;;;;;;;;;27.20;46.50;;;;;;5022469;28;19933;-74
2022/07/09 14:02:00;;;;;;;;;;;27.30;46.10;;;;;;5016292;28;19929;-73
2022/07/09 14:04:26;;;;;;;;;;;27.30;46.10;;;;;;5017597;28;20353;-74
2022/07/09 14:06:53;;;;;;;;;;;27.40;45.80;;;;;;5017526;28;19929;-73
2022/07/09 14:09:21;;;;;;;;;;;27.40;46.00;;;;;;5024216;28;19933;-75
2022/07/09 14:11:48;;;;;;;;;;;27.40;45.80;;;;;;5024395;28;20020;-73
2022/07/09 14:14:14;;;;;;;;;;;27.40;46.00;;;;;;5020878;28;19973;-73
2022/07/09 14:16:41;;;;;;;;;;;27.50;46.20;;;;;;5023593;28;19929;-73